Time;durP1;ratioP1;P1;durP2;ratioP2;P2;SDS_P1;SDS_P2;PMS_P1;PMS_P2;Temp;Humidity;BMP_temperature;BMP_pressure;BME280_temperature;BME280_humidity;BME280_pressure;Samples;Min_cycle;Max_cycle;Signal;HPM_P1;HPM_P2
2023/06/12 00:01:39;;;;;;;4.00;2.00;;;;;;;;;;5095185;28;20445;-63
2023/06/12 00:04:06;;;;;;;3.60;2.05;;;;;;;;;;5096249;28;20054;-64
2023/06/12 00:06:33;;;;;;;4.18;2.22;;;;;;;;;;5095284;28;20024;-64
2023/06/12 00:08:59;;;;;;;3.35;2.20;;;;;;;;;;5105014;28;20028;-64
2023/06/12 00:11:25;;;;;;;5.65;2.33;;;;;;;;;;5102190;28;20024;-64
2023/06/12 00:13:50;;;;;;;4.68;1.98;;;;;;;;;;5097262;28;20035;-64
2023/06/12 00:16:16;;;;;;;6.60;2.35;;;;;;;;;;5110393;28;20092;-64
2023/06/12 00:18:42;;;;;;;6.70;2.05;;;;;;;;;;5108016;28;20032;-64
2023/06/12 00:21:09;;;;;;;6.18;2.00;;;;;;;;;;5106188;28;20095;-64
2023/06/12 00:23:36;;;;;;;5.43;2.33;;;;;;;;;;5099262;28;20024;-64
2023/06/12 00:26:02;;;;;;;7.78;3.60;;;;;;;;;;5110663;28;20472;-64
2023/06/12 00:28:28;;;;;;;6.93;3.33;;;;;;;;;;5115049;28;20028;-64
2023/06/12 00:30:53;;;;;;;7.65;3.08;;;;;;;;;;5099119;28;20020;-64
2023/06/12 00:33:19;;;;;;;3.30;2.10;;;;;;;;;;5096197;28;20112;-64
2023/06/12 00:35:44;;;;;;;6.55;2.40;;;;;;;;;;5115226;28;20102;-64
2023/06/12 00:38:11;;;;;;;5.93;2.30;;;;;;;;;;5109378;28;20054;-64
2023/06/12 00:40:37;;;;;;;5.45;2.35;;;;;;;;;;5100681;28;20382;-64
2023/06/12 00:43:02;;;;;;;5.47;2.28;;;;;;;;;;5102567;28;20032;-64
2023/06/12 00:45:28;;;;;;;4.47;2.20;;;;;;;;;;5110120;28;20088;-65
2023/06/12 00:47:56;;;;;;;6.47;2.25;;;;;;;;;;5097712;28;20702;-64
2023/06/12 00:50:26;;;;;;;4.22;2.10;;;;;;;;;;5114928;28;20058;-64
2023/06/12 00:52:52;;;;;;;10.80;2.47;;;;;;;;;;5103287;28;20462;-65
2023/06/12 00:55:17;;;;;;;4.43;2.00;;;;;;;;;;5094503;28;20032;-64
2023/06/12 00:57:43;;;;;;;7.80;2.10;;;;;;;;;;5108097;28;20031;-64
2023/06/12 01:00:11;;;;;;;5.93;2.90;;;;;;;;;;5114589;28;20160;-64
2023/06/12 01:02:45;;;;;;;3.60;2.20;;;;;;;;;;5102267;28;20528;-64
2023/06/12 01:05:17;;;;;;;4.00;2.10;;;;;;;;;;5094209;28;20044;-64
2023/06/12 01:07:51;;;;;;;4.07;2.20;;;;;;;;;;5105354;28;20465;-64
2023/06/12 01:10:22;;;;;;;3.28;2.15;;;;;;;;;;5114822;28;20023;-64
2023/06/12 01:12:48;;;;;;;3.78;2.20;;;;;;;;;;5095717;28;20484;-64
2023/06/12 01:15:15;;;;;;;6.45;2.30;;;;;;;;;;5094098;28;20069;-64
2023/06/12 01:17:41;;;;;;;5.25;2.20;;;;;;;;;;5114521;28;20513;-65
2023/06/12 01:20:11;;;;;;;3.85;2.00;;;;;;;;;;5114618;28;20034;-64
2023/06/12 01:22:54;;;;;;;3.30;2.20;;;;;;;;;;5094988;28;20492;-64
2023/06/12 01:25:46;;;;;;;3.97;2.00;;;;;;;;;;5093968;28;20032;-65
2023/06/12 01:28:21;;;;;;;4.65;2.28;;;;;;;;;;5068820;28;20055;-65
2023/06/12 01:31:06;;;;;;;6.07;2.17;;;;;;;;;;5073833;28;20082;-64
2023/06/12 01:33:36;;;;;;;4.97;2.13;;;;;;;;;;5073513;28;20074;-64
2023/06/12 01:36:03;;;;;;;3.10;1.92;;;;;;;;;;5083569;28;20051;-64
2023/06/12 01:38:32;;;;;;;7.10;2.13;;;;;;;;;;5098777;28;20480;-64
2023/06/12 01:40:59;;;;;;;2.88;1.90;;;;;;;;;;5114088;28;20032;-64
2023/06/12 01:43:24;;;;;;;4.75;2.22;;;;;;;;;;5110229;28;20012;-66
2023/06/12 01:45:50;;;;;;;4.20;2.08;;;;;;;;;;5093512;28;20036;-64
2023/06/12 01:48:16;;;;;;;4.47;2.00;;;;;;;;;;5099464;28;20063;-64
2023/06/12 01:50:42;;;;;;;2.95;1.80;;;;;;;;;;5113812;27;20035;-64
2023/06/12 01:53:10;;;;;;;4.63;2.03;;;;;;;;;;5113985;28;20107;-64
2023/06/12 01:55:36;;;;;;;4.38;1.90;;;;;;;;;;5093290;28;20030;-64
2023/06/12 01:58:01;;;;;;;3.35;1.98;;;;;;;;;;5111906;28;20096;-64
2023/06/12 02:00:27;;;;;;;8.13;2.33;;;;;;;;;;5113714;28;20019;-64
2023/06/12 02:02:55;;;;;;;6.78;2.30;;;;;;;;;;5096488;28;20024;-63
2023/06/12 02:05:21;;;;;;;3.05;2.17;;;;;;;;;;5092927;28;20035;-62
2023/06/12 02:07:46;;;;;;;5.78;2.10;;;;;;;;;;5104883;28;20043;-63
2023/06/12 02:10:12;;;;;;;5.45;2.00;;;;;;;;;;5113637;27;20019;-63
2023/06/12 02:12:37;;;;;;;3.80;2.08;;;;;;;;;;5103420;28;20039;-63
2023/06/12 02:15:04;;;;;;;2.78;2.08;;;;;;;;;;5093007;28;20117;-64
2023/06/12 02:17:32;;;;;;;2.92;1.77;;;;;;;;;;5096204;28;20031;-63
2023/06/12 02:19:57;;;;;;;4.22;1.95;;;;;;;;;;5113307;28;20034;-63
2023/06/12 02:22:23;;;;;;;3.00;2.15;;;;;;;;;;5113233;28;20027;-63
2023/06/12 02:24:48;;;;;;;5.22;1.80;;;;;;;;;;5096874;28;20020;-63
2023/06/12 02:27:14;;;;;;;5.18;2.10;;;;;;;;;;5092617;28;20103;-64
2023/06/12 02:29:39;;;;;;;5.15;2.13;;;;;;;;;;5106389;28;20023;-64
2023/06/12 02:32:05;;;;;;;4.22;2.08;;;;;;;;;;5113125;28;20127;-64
2023/06/12 02:34:30;;;;;;;7.40;2.20;;;;;;;;;;5106891;28;20115;-64
2023/06/12 02:36:56;;;;;;;4.25;2.30;;;;;;;;;;5092705;28;20103;-63
2023/06/12 02:39:22;;;;;;;3.92;2.13;;;;;;;;;;5103228;28;20103;-63
2023/06/12 02:41:48;;;;;;;3.33;2.10;;;;;;;;;;5112878;28;20024;-64
2023/06/12 02:44:15;;;;;;;2.88;2.00;;;;;;;;;;5112878;28;20027;-64
2023/06/12 02:46:52;;;;;;;6.50;2.20;;;;;;;;;;5098532;28;20040;-63
2023/06/12 02:49:18;;;;;;;4.57;2.25;;;;;;;;;;5092571;28;20074;-63
2023/06/12 02:51:44;;;;;;;9.30;5.30;;;;;;;;;;5106138;28;20439;-63
2023/06/12 02:54:10;;;;;;;28.15;14.48;;;;;;;;;;5117316;28;20031;-64
2023/06/12 02:56:35;;;;;;;22.27;12.13;;;;;;;;;;5109340;28;20031;-63
2023/06/12 02:59:00;;;;;;;3.80;1.90;;;;;;;;;;5096667;28;20069;-63
2023/06/12 03:01:27;;;;;;;4.63;1.90;;;;;;;;;;5101828;28;20098;-66
2023/06/12 03:03:53;;;;;;;4.68;2.20;;;;;;;;;;5108463;28;20017;-63
2023/06/12 03:06:18;;;;;;;5.45;2.20;;;;;;;;;;5095040;28;20035;-64
2023/06/12 03:08:44;;;;;;;3.80;2.30;;;;;;;;;;5115921;28;20380;-63
2023/06/12 03:11:09;;;;;;;3.47;2.03;;;;;;;;;;5101813;28;20474;-63
2023/06/12 03:13:35;;;;;;;4.00;2.10;;;;;;;;;;5100243;28;20457;-64
2023/06/12 03:16:02;;;;;;;3.78;1.92;;;;;;;;;;5116614;28;20526;-64
2023/06/12 03:18:27;;;;;;;4.32;2.20;;;;;;;;;;5105559;28;20031;-63
2023/06/12 03:20:53;;;;;;;6.47;2.10;;;;;;;;;;5096325;28;20032;-64
2023/06/12 03:23:19;;;;;;;4.60;1.80;;;;;;;;;;5106710;28;20024;-64
2023/06/12 03:25:44;;;;;;;3.72;1.85;;;;;;;;;;5116076;27;20564;-63
2023/06/12 03:28:10;;;;;;;6.80;2.05;;;;;;;;;;5113057;28;20052;-64
2023/06/12 03:30:36;;;;;;;4.05;1.90;;;;;;;;;;5096047;28;20497;-64
2023/06/12 03:33:02;;;;;;;6.18;2.20;;;;;;;;;;5096377;28;20024;-64
2023/06/12 03:35:29;;;;;;;5.10;1.88;;;;;;;;;;5116480;28;20084;-64
2023/06/12 03:37:55;;;;;;;5.13;2.20;;;;;;;;;;5102849;28;20111;-64
2023/06/12 03:40:20;;;;;;;4.13;2.00;;;;;;;;;;5114258;28;20127;-64
2023/06/12 03:42:45;;;;;;;4.70;2.38;;;;;;;;;;5116389;28;20506;-64
2023/06/12 03:45:11;;;;;;;9.80;2.78;;;;;;;;;;5099999;28;20024;-64
2023/06/12 03:47:37;;;;;;;3.30;1.75;;;;;;;;;;5095663;28;20047;-64
2023/06/12 03:50:02;;;;;;;4.47;1.98;;;;;;;;;;5108900;28;20053;-64
2023/06/12 03:52:28;;;;;;;3.03;2.20;;;;;;;;;;5116082;28;20041;-64
2023/06/12 03:54:53;;;;;;;8.68;1.95;;;;;;;;;;5105936;28;20081;-64
2023/06/12 03:57:20;;;;;;;3.92;2.10;;;;;;;;;;5095645;28;20053;-64
2023/06/12 03:59:46;;;;;;;5.07;2.00;;;;;;;;;;5106919;28;20099;-64
2023/06/12 04:02:11;;;;;;;3.92;2.00;;;;;;;;;;5115298;28;20047;-65
2023/06/12 04:04:37;;;;;;;5.03;2.05;;;;;;;;;;5100685;28;20418;-64
2023/06/12 04:07:03;;;;;;;8.13;3.45;;;;;;;;;;5095410;28;20047;-64
2023/06/12 04:09:28;;;;;;;11.00;4.55;;;;;;;;;;5104062;28;20062;-64
2023/06/12 04:11:54;;;;;;;4.65;2.40;;;;;;;;;;5115657;28;20024;-64
2023/06/12 04:14:20;;;;;;;3.50;1.95;;;;;;;;;;5112193;27;20099;-64
2023/06/12 04:16:46;;;;;;;4.63;2.20;;;;;;;;;;5095230;28;20020;-64
2023/06/12 04:19:12;;;;;;;4.38;2.22;;;;;;;;;;5095241;28;20031;-64
2023/06/12 04:21:37;;;;;;;6.40;2.15;;;;;;;;;;5115148;28;20032;-63
2023/06/12 04:24:05;;;;;;;5.60;2.42;;;;;;;;;;5110135;28;20027;-63
2023/06/12 04:26:31;;;;;;;5.90;2.60;;;;;;;;;;5094880;28;20038;-63
2023/06/12 04:28:56;;;;;;;4.07;2.10;;;;;;;;;;5100558;28;20094;-63
2023/06/12 04:31:26;;;;;;;4.82;2.22;;;;;;;;;;5115399;28;20031;-63
2023/06/12 04:33:52;;;;;;;5.57;2.43;;;;;;;;;;5114039;28;20072;-63
2023/06/12 04:36:18;;;;;;;4.30;2.00;;;;;;;;;;5094859;28;20095;-63
2023/06/12 04:38:45;;;;;;;6.53;2.17;;;;;;;;;;5099633;28;20104;-63
2023/06/12 04:41:11;;;;;;;3.53;2.00;;;;;;;;;;5115056;28;20524;-64
2023/06/12 04:43:36;;;;;;;8.70;2.60;;;;;;;;;;5115215;28;20602;-63
2023/06/12 04:46:02;;;;;;;6.03;2.50;;;;;;;;;;5097491;28;20091;-64
2023/06/12 04:48:28;;;;;;;4.72;2.13;;;;;;;;;;5094459;28;20043;-64
2023/06/12 04:50:54;;;;;;;6.13;2.38;;;;;;;;;;5105299;28;20038;-64
2023/06/12 04:53:27;;;;;;;9.32;2.50;;;;;;;;;;5114655;28;20011;-64
2023/06/12 04:55:54;;;;;;;6.65;2.53;;;;;;;;;;5105912;28;20024;-64
2023/06/12 04:58:20;;;;;;;11.75;2.83;;;;;;;;;;5094408;28;20093;-64
2023/06/12 05:00:47;;;;;;;7.65;2.22;;;;;;;;;;5100623;28;20023;-65
2023/06/12 05:03:16;;;;;;;5.22;2.28;;;;;;;;;;5111490;28;20366;-64
2023/06/12 05:05:42;;;;;;;7.70;2.40;;;;;;;;;;5098204;28;20454;-63
2023/06/12 05:08:08;;;;;;;9.77;2.42;;;;;;;;;;5114485;28;20080;-63
2023/06/12 05:10:33;;;;;;;6.80;2.25;;;;;;;;;;5110602;28;20488;-63
2023/06/12 05:12:59;;;;;;;5.85;2.22;;;;;;;;;;5093307;28;20393;-63
2023/06/12 05:15:24;;;;;;;7.22;2.13;;;;;;;;;;5099603;28;20068;-64
2023/06/12 05:17:50;;;;;;;7.43;2.38;;;;;;;;;;5111258;28;20107;-63
2023/06/12 05:20:15;;;;;;;5.90;2.40;;;;;;;;;;5095252;28;20032;-64
2023/06/12 05:22:41;;;;;;;6.25;2.35;;;;;;;;;;5114325;28;20015;-63
2023/06/12 05:25:07;;;;;;;4.05;2.88;;;;;;;;;;5114170;28;20032;-64
2023/06/12 05:27:33;;;;;;;5.65;2.42;;;;;;;;;;5101223;27;20052;-64
2023/06/12 05:29:58;;;;;;;7.40;2.60;;;;;;;;;;5093918;28;20551;-63
2023/06/12 05:32:24;;;;;;;8.23;2.40;;;;;;;;;;5107236;28;20488;-64
2023/06/12 05:34:49;;;;;;;13.73;2.70;;;;;;;;;;5113918;28;20024;-64
2023/06/12 05:37:15;;;;;;;11.48;2.75;;;;;;;;;;5111820;28;20030;-64
2023/06/12 05:39:40;;;;;;;5.20;2.80;;;;;;;;;;5113756;28;20100;-63
2023/06/12 05:42:07;;;;;;;9.45;2.70;;;;;;;;;;5113798;28;20483;-64
2023/06/12 05:44:32;;;;;;;7.60;2.75;;;;;;;;;;5113665;28;20534;-63
2023/06/12 05:46:58;;;;;;;11.95;2.80;;;;;;;;;;5113611;28;20020;-64
2023/06/12 05:49:23;;;;;;;6.32;2.60;;;;;;;;;;5095009;28;20365;-64
2023/06/12 05:51:48;;;;;;;8.63;2.50;;;;;;;;;;5093364;28;20488;-64
2023/06/12 05:54:14;;;;;;;8.52;2.83;;;;;;;;;;5113712;28;20028;-63
2023/06/12 05:56:39;;;;;;;18.83;2.65;;;;;;;;;;5113714;28;20112;-64
2023/06/12 05:59:05;;;;;;;6.75;2.60;;;;;;;;;;5096244;28;20031;-64
2023/06/12 06:01:31;;;;;;;7.20;2.90;;;;;;;;;;5093322;28;20077;-64
2023/06/12 06:03:58;;;;;;;9.15;2.80;;;;;;;;;;5098217;28;20047;-64
2023/06/12 06:06:24;;;;;;;13.88;2.75;;;;;;;;;;5091048;28;20384;-63
2023/06/12 06:08:49;;;;;;;15.30;3.45;;;;;;;;;;5086240;28;20123;-65
2023/06/12 06:11:15;;;;;;;9.93;3.05;;;;;;;;;;5082920;28;20034;-65
2023/06/12 06:13:43;;;;;;;11.85;2.88;;;;;;;;;;5096647;28;20035;-65
2023/06/12 06:16:10;;;;;;;14.18;3.20;;;;;;;;;;5092494;28;20034;-65
2023/06/12 06:18:37;;;;;;;10.00;3.08;;;;;;;;;;5102292;28;20349;-65
2023/06/12 06:21:02;;;;;;;10.20;3.05;;;;;;;;;;5106861;28;20493;-65
2023/06/12 06:23:54;;;;;;;9.60;2.95;;;;;;;;;;5084056;28;20064;-65
2023/06/12 06:26:20;;;;;;;6.85;2.67;;;;;;;;;;5085333;28;20036;-64
2023/06/12 06:28:45;;;;;;;5.80;2.70;;;;;;;;;;5092706;28;20027;-65
2023/06/12 06:31:12;;;;;;;8.05;4.05;;;;;;;;;;5092801;28;20104;-65
2023/06/12 06:33:37;;;;;;;21.10;3.25;;;;;;;;;;5092521;28;20032;-65
2023/06/12 06:36:03;;;;;;;11.45;3.00;;;;;;;;;;5092478;28;20028;-65
2023/06/12 06:38:28;;;;;;;9.93;3.70;;;;;;;;;;5095302;28;20497;-64
2023/06/12 06:40:54;;;;;;;14.32;3.38;;;;;;;;;;5108108;28;20023;-65
2023/06/12 06:43:20;;;;;;;14.27;3.80;;;;;;;;;;5092558;28;20067;-65
2023/06/12 06:45:46;;;;;;;9.93;2.90;;;;;;;;;;5092385;28;20070;-64
2023/06/12 06:48:12;;;;;;;12.48;3.40;;;;;;;;;;5092088;28;20040;-65
2023/06/12 06:50:40;;;;;;;8.73;3.17;;;;;;;;;;5092302;28;20047;-65
2023/06/12 06:53:05;;;;;;;10.85;3.00;;;;;;;;;;5090192;28;20095;-64
2023/06/12 06:55:32;;;;;;;17.02;3.55;;;;;;;;;;5080319;28;20107;-65
2023/06/12 06:57:58;;;;;;;21.25;3.35;;;;;;;;;;5092297;28;20020;-64
2023/06/12 07:00:26;;;;;;;8.10;2.85;;;;;;;;;;5092412;28;20062;-65
2023/06/12 07:02:52;;;;;;;7.20;2.47;;;;;;;;;;5094888;28;20027;-65
2023/06/12 07:05:18;;;;;;;6.43;2.83;;;;;;;;;;5092033;28;20036;-65
2023/06/12 07:07:44;;;;;;;8.00;2.95;;;;;;;;;;5092070;28;20036;-65
2023/06/12 07:10:10;;;;;;;8.35;2.63;;;;;;;;;;5092037;28;20055;-65
2023/06/12 07:12:36;;;;;;;8.98;2.85;;;;;;;;;;5092193;28;20055;-65
2023/06/12 07:15:01;;;;;;;6.80;2.28;;;;;;;;;;5091934;28;20407;-65
2023/06/12 07:17:27;;;;;;;7.05;3.03;;;;;;;;;;5091900;28;20020;-64
2023/06/12 07:19:52;;;;;;;8.95;2.85;;;;;;;;;;5090900;28;20504;-65
2023/06/12 07:22:18;;;;;;;15.32;3.08;;;;;;;;;;5092133;28;20062;-65
2023/06/12 07:24:43;;;;;;;10.05;2.90;;;;;;;;;;5092070;28;20377;-65
2023/06/12 07:27:08;;;;;;;14.13;3.47;;;;;;;;;;5092014;28;20020;-65
2023/06/12 07:29:35;;;;;;;11.43;2.97;;;;;;;;;;5092196;28;20029;-64
2023/06/12 07:32:00;;;;;;;8.07;2.85;;;;;;;;;;5091772;28;20430;-64
2023/06/12 07:34:26;;;;;;;7.93;3.15;;;;;;;;;;5091854;28;20056;-64
2023/06/12 07:36:52;;;;;;;9.35;3.15;;;;;;;;;;5092875;28;20449;-64
2023/06/12 07:39:18;;;;;;;7.43;3.30;;;;;;;;;;5105681;28;20498;-64
2023/06/12 07:41:43;;;;;;;9.18;2.65;;;;;;;;;;5115992;28;20039;-65
2023/06/12 07:44:12;;;;;;;13.45;3.47;;;;;;;;;;5116130;28;20081;-65
2023/06/12 07:46:38;;;;;;;7.97;2.55;;;;;;;;;;5115727;28;20039;-65
2023/06/12 07:49:03;;;;;;;10.13;3.30;;;;;;;;;;5102752;28;20052;-65
2023/06/12 07:51:29;;;;;;;7.80;2.70;;;;;;;;;;5095264;28;20108;-65
2023/06/12 07:53:54;;;;;;;12.02;2.83;;;;;;;;;;5095415;28;20031;-65
2023/06/12 07:56:20;;;;;;;3.67;2.35;;;;;;;;;;5095203;28;20032;-64
2023/06/12 07:58:46;;;;;;;6.25;2.75;;;;;;;;;;5095451;28;20032;-65
2023/06/12 08:01:13;;;;;;;9.80;3.00;;;;;;;;;;5095302;28;20024;-65
2023/06/12 08:03:42;;;;;;;9.27;2.60;;;;;;;;;;5098007;28;20150;-65
2023/06/12 08:06:09;;;;;;;7.20;3.00;;;;;;;;;;5094859;28;20032;-65
2023/06/12 08:08:46;;;;;;;5.22;2.50;;;;;;;;;;5095262;28;20036;-65
2023/06/12 08:11:12;;;;;;;5.97;2.67;;;;;;;;;;5108359;28;20020;-65
2023/06/12 08:13:38;;;;;;;13.70;2.85;;;;;;;;;;5099724;28;20473;-65
2023/06/12 08:16:04;;;;;;;10.05;2.20;;;;;;;;;;5102155;28;20035;-65
2023/06/12 08:18:30;;;;;;;4.50;2.53;;;;;;;;;;5109549;28;20016;-64
2023/06/12 08:20:57;;;;;;;9.18;2.47;;;;;;;;;;5104345;28;20023;-65
2023/06/12 08:23:23;;;;;;;4.78;2.20;;;;;;;;;;5101817;28;20032;-65
2023/06/12 08:25:48;;;;;;;5.75;2.40;;;;;;;;;;5111440;28;20142;-65
2023/06/12 08:28:14;;;;;;;4.95;2.10;;;;;;;;;;5107612;28;20020;-65
2023/06/12 08:30:39;;;;;;;5.93;2.28;;;;;;;;;;5115517;28;20027;-66
2023/06/12 08:33:04;;;;;;;7.97;2.10;;;;;;;;;;5115272;28;20535;-64
2023/06/12 08:35:30;;;;;;;7.35;2.00;;;;;;;;;;5115062;28;20165;-64
2023/06/12 08:37:56;;;;;;;3.70;1.83;;;;;;;;;;5102939;28;20078;-66
2023/06/12 08:40:21;;;;;;;7.85;2.15;;;;;;;;;;5113332;28;20038;-64
2023/06/12 08:42:51;;;;;;;3.95;2.22;;;;;;;;;;5115023;28;20023;-64
2023/06/12 08:45:18;;;;;;;8.43;2.53;;;;;;;;;;5114565;28;20035;-64
2023/06/12 08:47:47;;;;;;;4.68;2.10;;;;;;;;;;5114051;28;20501;-64
2023/06/12 08:50:13;;;;;;;10.20;2.40;;;;;;;;;;5114701;28;20126;-64
2023/06/12 08:52:40;;;;;;;4.45;2.50;;;;;;;;;;5114754;28;20268;-64
2023/06/12 08:55:08;;;;;;;5.47;2.35;;;;;;;;;;5114785;28;20103;-64
2023/06/12 08:57:38;;;;;;;5.97;2.58;;;;;;;;;;5114789;28;20023;-64
2023/06/12 09:00:10;;;;;;;8.35;2.50;;;;;;;;;;5114448;28;20048;-67
2023/06/12 09:02:35;;;;;;;6.38;2.30;;;;;;;;;;5103956;28;20617;-65
2023/06/12 09:05:06;;;;;;;6.88;2.40;;;;;;;;;;5095910;28;20180;-64
2023/06/12 09:07:36;;;;;;;4.60;1.70;;;;;;;;;;5094157;28;20127;-65
2023/06/12 09:10:02;;;;;;;4.78;2.35;;;;;;;;;;5094040;28;20393;-64
2023/06/12 09:12:29;;;;;;;5.25;2.65;;;;;;;;;;5093740;28;20102;-65
2023/06/12 09:14:55;;;;;;;7.72;2.00;;;;;;;;;;5093850;28;20473;-64
2023/06/12 09:17:28;;;;;;;6.85;2.00;;;;;;;;;;5094084;28;20036;-64
2023/06/12 09:19:54;;;;;;;6.88;2.53;;;;;;;;;;5093672;28;20063;-62
2023/06/12 09:22:21;;;;;;;7.05;2.35;;;;;;;;;;5093822;28;20443;-64
2023/06/12 09:24:47;;;;;;;4.13;2.20;;;;;;;;;;5093730;28;20024;-64
2023/06/12 09:27:14;;;;;;;5.65;2.40;;;;;;;;;;5093498;28;20024;-64
2023/06/12 09:29:41;;;;;;;4.15;2.20;;;;;;;;;;5093404;28;20024;-65
2023/06/12 09:32:10;;;;;;;3.15;2.10;;;;;;;;;;5091899;28;20023;-65
2023/06/12 09:34:36;;;;;;;4.60;2.25;;;;;;;;;;5093200;28;20027;-65
2023/06/12 09:37:05;;;;;;;6.50;2.05;;;;;;;;;;5093351;28;20024;-65
2023/06/12 09:39:31;;;;;;;4.63;2.10;;;;;;;;;;5104930;28;20027;-65
2023/06/12 09:41:58;;;;;;;5.53;2.40;;;;;;;;;;5113566;28;20152;-65
2023/06/12 09:44:25;;;;;;;4.40;2.13;;;;;;;;;;5113891;28;20030;-66
2023/06/12 09:46:51;;;;;;;3.30;1.98;;;;;;;;;;5113827;28;20027;-64
2023/06/12 09:49:23;;;;;;;7.45;2.50;;;;;;;;;;5113844;28;20035;-65
2023/06/12 09:51:50;;;;;;;7.13;2.13;;;;;;;;;;5113690;28;20492;-65
2023/06/12 09:54:17;;;;;;;4.25;1.63;;;;;;;;;;5113534;28;20045;-64
2023/06/12 09:56:44;;;;;;;6.18;1.98;;;;;;;;;;5113292;28;20032;-64
2023/06/12 09:59:18;;;;;;;3.60;2.10;;;;;;;;;;5113129;28;20435;-64
2023/06/12 10:01:59;;;;;;;3.95;2.30;;;;;;;;;;5109471;28;20126;-64
2023/06/12 10:04:31;;;;;;;6.47;2.63;;;;;;;;;;5095674;28;20028;-64
2023/06/12 10:07:11;;;;;;;4.63;2.00;;;;;;;;;;5093361;28;20059;-64
2023/06/12 10:09:39;;;;;;;7.70;2.13;;;;;;;;;;5093050;28;20035;-64
2023/06/12 10:12:06;;;;;;;4.85;2.50;;;;;;;;;;5092656;28;20024;-64
2023/06/12 10:14:33;;;;;;;4.78;2.30;;;;;;;;;;5092840;28;20063;-65
2023/06/12 10:17:00;;;;;;;4.88;1.88;;;;;;;;;;5092956;28;20028;-64
2023/06/12 10:19:25;;;;;;;8.82;2.30;;;;;;;;;;5092913;28;20034;-64
2023/06/12 10:21:54;;;;;;;11.80;3.08;;;;;;;;;;5092926;28;20060;-65
2023/06/12 10:24:23;;;;;;;4.28;2.30;;;;;;;;;;5092617;28;20450;-65
2023/06/12 10:26:52;;;;;;;7.32;2.17;;;;;;;;;;5092631;28;20065;-65
2023/06/12 10:29:29;;;;;;;7.13;3.10;;;;;;;;;;5091423;28;20119;-65
2023/06/12 10:32:06;;;;;;;7.00;2.30;;;;;;;;;;5092831;28;20062;-65
2023/06/12 10:34:42;;;;;;;4.57;2.35;;;;;;;;;;5092674;28;20069;-65
2023/06/12 10:37:30;;;;;;;6.72;2.40;;;;;;;;;;5092584;28;20469;-65
2023/06/12 10:40:09;;;;;;;6.70;2.72;;;;;;;;;;5107740;28;20038;-65
2023/06/12 10:42:38;;;;;;;4.72;2.28;;;;;;;;;;5112879;28;20366;-65
2023/06/12 10:45:16;;;;;;;4.13;2.33;;;;;;;;;;5089595;28;20503;-65
2023/06/12 10:47:57;;;;;;;3.10;2.17;;;;;;;;;;5088868;28;20109;-65
2023/06/12 10:50:26;;;;;;;4.65;2.08;;;;;;;;;;5092173;28;20031;-65
2023/06/12 10:53:00;;;;;;;4.82;2.42;;;;;;;;;;5092591;28;20029;-65
2023/06/12 10:55:28;;;;;;;4.72;2.35;;;;;;;;;;5092265;28;20032;-65
2023/06/12 10:57:55;;;;;;;6.72;2.25;;;;;;;;;;5092266;28;20039;-64
2023/06/12 11:00:28;;;;;;;3.47;2.22;;;;;;;;;;5092262;28;20077;-64
2023/06/12 11:02:59;;;;;;;6.10;2.53;;;;;;;;;;5092204;28;20028;-64
2023/06/12 11:05:26;;;;;;;4.75;2.40;;;;;;;;;;5090780;28;20394;-64
2023/06/12 11:07:57;;;;;;;5.00;2.67;;;;;;;;;;5092011;28;20021;-65
2023/06/12 11:10:22;;;;;;;6.28;2.47;;;;;;;;;;5091853;28;20362;-64
2023/06/12 11:12:49;;;;;;;5.45;2.78;;;;;;;;;;5094774;28;20027;-65
2023/06/12 11:15:15;;;;;;;6.35;2.50;;;;;;;;;;5089264;28;20024;-64
2023/06/12 11:17:41;;;;;;;3.97;2.33;;;;;;;;;;5074476;28;20020;-64
2023/06/12 11:20:08;;;;;;;5.53;2.00;;;;;;;;;;5075898;28;20104;-65
2023/06/12 11:22:33;;;;;;;5.45;2.70;;;;;;;;;;5075974;28;20035;-64
2023/06/12 11:25:03;;;;;;;5.93;2.50;;;;;;;;;;5075431;28;20024;-64
2023/06/12 11:27:32;;;;;;;8.15;2.70;;;;;;;;;;5075872;28;20020;-64
2023/06/12 11:30:13;;;;;;;4.37;2.20;;;;;;;;;;5075754;28;20025;-64
2023/06/12 11:32:38;;;;;;;4.15;2.25;;;;;;;;;;5075814;28;20027;-64
2023/06/12 11:35:06;;;;;;;6.03;2.78;;;;;;;;;;5075677;28;20111;-65
2023/06/12 11:37:32;;;;;;;5.90;2.40;;;;;;;;;;5083948;28;20031;-64
2023/06/12 11:40:09;;;;;;;6.78;2.30;;;;;;;;;;5097543;28;20028;-63
2023/06/12 11:42:37;;;;;;;6.90;2.50;;;;;;;;;;5095905;28;20089;-65
2023/06/12 11:45:07;;;;;;;6.20;2.50;;;;;;;;;;5095893;28;20054;-64
2023/06/12 11:47:35;;;;;;;7.68;2.63;;;;;;;;;;5095266;28;20066;-64
2023/06/12 11:50:03;;;;;;;10.90;2.78;;;;;;;;;;5095662;28;20251;-64
2023/06/12 11:52:29;;;;;;;4.93;2.63;;;;;;;;;;5095303;28;20042;-64
2023/06/12 11:55:00;;;;;;;5.47;2.75;;;;;;;;;;5095644;28;20036;-64
2023/06/12 11:57:26;;;;;;;5.25;2.40;;;;;;;;;;5095630;28;20373;-64
2023/06/12 11:59:56;;;;;;;4.32;2.60;;;;;;;;;;5095537;28;20024;-64
2023/06/12 12:02:31;;;;;;;3.90;2.50;;;;;;;;;;5095630;28;20038;-64
2023/06/12 12:04:58;;;;;;;6.95;2.45;;;;;;;;;;5075142;28;20033;-63
2023/06/12 12:07:24;;;;;;;3.72;2.60;;;;;;;;;;5074916;28;20494;-63
2023/06/12 12:10:11;;;;;;;6.13;2.13;;;;;;;;;;5074976;28;20127;-64
2023/06/12 12:12:48;;;;;;;5.47;2.50;;;;;;;;;;5079350;28;20020;-64
2023/06/12 12:15:16;;;;;;;3.60;2.55;;;;;;;;;;5088794;28;20052;-64
2023/06/12 12:17:42;;;;;;;5.60;2.28;;;;;;;;;;5074887;28;20423;-64
2023/06/12 12:20:21;;;;;;;7.47;2.55;;;;;;;;;;5074971;28;20571;-64
2023/06/12 12:22:57;;;;;;;5.18;2.67;;;;;;;;;;5074021;28;20039;-63
2023/06/12 12:25:26;;;;;;;6.47;3.33;;;;;;;;;;5074820;28;20020;-64
2023/06/12 12:27:53;;;;;;;6.50;2.50;;;;;;;;;;5074839;28;20024;-64
2023/06/12 12:30:23;;;;;;;4.63;2.45;;;;;;;;;;5074647;28;20525;-64
2023/06/12 12:32:49;;;;;;;;;;;;;;;;;;5075330;28;20424;-65
2023/06/12 12:35:15;;;;;;;7.05;2.80;;;;;;;;;;5074619;28;19997;-64
2023/06/12 12:37:42;;;;;;;9.68;2.67;;;;;;;;;;5083955;28;20024;-64
2023/06/12 12:40:10;;;;;;;3.80;2.42;;;;;;;;;;5096444;28;20111;-65
2023/06/12 12:42:39;;;;;;;4.82;2.40;;;;;;;;;;5093475;28;20039;-65
2023/06/12 12:45:06;;;;;;;;;;;;;;;;;;5094941;28;20024;-65
2023/06/12 12:47:32;;;;;;;5.82;2.47;;;;;;;;;;5094190;28;20365;-64
2023/06/12 12:49:58;;;;;;;5.63;2.50;;;;;;;;;;5094042;28;20028;-64
2023/06/12 12:52:24;;;;;;;4.43;2.58;;;;;;;;;;5094443;28;20024;-64
2023/06/12 12:54:50;;;;;;;7.45;2.90;;;;;;;;;;5094406;28;20111;-64
2023/06/12 12:57:16;;;;;;;9.52;2.85;;;;;;;;;;5094417;28;20048;-65
2023/06/12 12:59:41;;;;;;;4.82;2.90;;;;;;;;;;5094323;28;20500;-65
2023/06/12 13:02:07;;;;;;;7.25;2.50;;;;;;;;;;5094185;28;20166;-65
2023/06/12 13:04:32;;;;;;;4.22;2.60;;;;;;;;;;5111014;28;20377;-65
2023/06/12 13:06:58;;;;;;;8.15;2.50;;;;;;;;;;5114706;28;20023;-64
2023/06/12 13:09:24;;;;;;;7.50;2.67;;;;;;;;;;5114757;28;20130;-64
2023/06/12 13:11:50;;;;;;;6.57;2.47;;;;;;;;;;5114467;28;20027;-64
2023/06/12 13:14:16;;;;;;;4.55;2.53;;;;;;;;;;5113528;28;20353;-64
2023/06/12 13:16:41;;;;;;;3.80;2.45;;;;;;;;;;5093972;28;20153;-64
2023/06/12 13:19:07;;;;;;;5.57;2.70;;;;;;;;;;5093673;28;20102;-64
2023/06/12 13:21:32;;;;;;;5.50;2.63;;;;;;;;;;5094082;28;20024;-64
2023/06/12 13:23:58;;;;;;;5.70;2.60;;;;;;;;;;5093601;28;20016;-64
2023/06/12 13:26:24;;;;;;;5.95;2.83;;;;;;;;;;5093605;28;20036;-64
2023/06/12 13:28:50;;;;;;;6.93;3.05;;;;;;;;;;5094133;28;20028;-64
2023/06/12 13:31:16;;;;;;;6.20;2.85;;;;;;;;;;5093765;28;20496;-64
2023/06/12 13:33:47;;;;;;;5.65;2.85;;;;;;;;;;5093254;28;20397;-66
2023/06/12 13:36:13;;;;;;;4.20;2.42;;;;;;;;;;5093436;28;20020;-64
2023/06/12 13:38:40;;;;;;;6.10;2.75;;;;;;;;;;5095274;28;20047;-64
2023/06/12 13:41:06;;;;;;;6.78;2.58;;;;;;;;;;5093672;28;20112;-65
2023/06/12 13:43:31;;;;;;;8.90;2.63;;;;;;;;;;5093761;28;20469;-65
2023/06/12 13:45:58;;;;;;;7.45;2.88;;;;;;;;;;5088671;28;20494;-65
2023/06/12 13:48:28;;;;;;;6.72;2.70;;;;;;;;;;5085692;28;20079;-65
2023/06/12 13:50:53;;;;;;;6.35;2.58;;;;;;;;;;5078734;28;20024;-64
2023/06/12 13:53:19;;;;;;;3.90;2.60;;;;;;;;;;5072789;28;20494;-64
2023/06/12 13:55:45;;;;;;;5.28;2.80;;;;;;;;;;5091304;28;20068;-64
2023/06/12 13:58:10;;;;;;;6.40;2.58;;;;;;;;;;5093230;28;20032;-63
2023/06/12 14:00:38;;;;;;;5.05;2.47;;;;;;;;;;5093383;28;20024;-64
2023/06/12 14:03:04;;;;;;;5.82;2.88;;;;;;;;;;5093570;28;20023;-63
2023/06/12 14:05:30;;;;;;;4.10;2.38;;;;;;;;;;5113436;28;20053;-63
2023/06/12 14:07:58;;;;;;;6.28;2.50;;;;;;;;;;5112543;28;20032;-63
2023/06/12 14:10:25;;;;;;;4.15;2.85;;;;;;;;;;5112540;28;20024;-63
2023/06/12 14:12:50;;;;;;;6.00;2.38;;;;;;;;;;5113404;28;20031;-63
2023/06/12 14:15:16;;;;;;;8.23;2.65;;;;;;;;;;5112864;28;20080;-64
2023/06/12 14:17:43;;;;;;;4.53;2.63;;;;;;;;;;5112505;28;20072;-64
2023/06/12 14:20:08;;;;;;;11.43;5.85;;;;;;;;;;5112954;28;20051;-64
2023/06/12 14:22:34;;;;;;;9.02;5.18;;;;;;;;;;5113183;28;20058;-64
2023/06/12 14:25:00;;;;;;;5.93;2.83;;;;;;;;;;5113002;28;20024;-64
2023/06/12 14:27:25;;;;;;;13.05;3.83;;;;;;;;;;5113270;28;20373;-63
2023/06/12 14:29:50;;;;;;;8.95;2.63;;;;;;;;;;5113130;28;20457;-64
2023/06/12 14:32:16;;;;;;;10.68;2.90;;;;;;;;;;5113195;28;20024;-63
2023/06/12 14:34:41;;;;;;;6.05;2.42;;;;;;;;;;5113778;28;20477;-64
2023/06/12 14:37:07;;;;;;;9.73;2.72;;;;;;;;;;5107797;28;20023;-64
2023/06/12 14:39:32;;;;;;;7.13;2.55;;;;;;;;;;5094688;28;20054;-64
2023/06/12 14:41:58;;;;;;;13.13;2.85;;;;;;;;;;5092561;28;20408;-63
2023/06/12 14:44:23;;;;;;;5.70;2.30;;;;;;;;;;5092626;28;20024;-63